Airfield :
LOGIN :

Register | Disclaimer

   EN    FR    IT 

 










Legend :    VFR   Marginal VFR   IFR   Intensive IFR   Very Intensive IFR
Visi :
Ceiling :
>= 8 km
>= 3000ft
5 to 8 km
1000 to 3000 ft
1500m to 5 km
500 to 1000 ft
800 to 1500m
200 to 500 ft
< 800m
< 200 ft
Symbols :   Thunderstorms  Fog  Heavy snow  Heavy precipitations  Wind > 20 kt
SIGMETs :     Misc.  Thunderstorms  Icing  Turbulence  Mountain Waves  Volcanic Ashes






- Airport Elevation : 15 ft
- IATA code : FCO


LIRF - Roma Leonardo da Vinci Fiumicino

CURRENT METAR :
  • 271720Z VRB03KT 9999 SCT018TCU SCT020 12/10 Q1020 NOSIG

EXPIRED METARs :
  • 271650Z VRB03KT 9999 VCSH SCT018TCU SCT025 12/10 Q1020 NOSIG
  • 271620Z 11004KT 9999 SCT020 SCT030 12/10 Q1020 RESHRA NOSIG
  • 271550Z 02003KT 350V060 9999 VCSH SCT020TCU SCT030 12/10 Q1020 RESHRA NOSIG
  • 271520Z 19004KT 120V220 9999 -SHRA SCT020TCU SCT030 14/10 Q1020 RERA NOSIG
  • 271450Z 23007KT 8000 SHRA FEW020TCU BKN040 14/09 Q1020 NOSIG

TAF TAF LIRF
Valid from the 27 at 18:00 until the 29 at 00:00 UTC


271700Z 2718/2824 24010KT 9999 SCT040
TEMPO 2720/2810 4000 RA
BECMG 2723/2801 25018G28KT
TEMPO 2812/2818 SHRA



MET'MAP, your aeronautical weather chart ! - Copyright ORBIFLY December 2007 - Disclaimer

ORBIFLY MET'MAP TEAM :

Programming & Development : Alexandra Zaïnal
Concept & original design : Baudouin d'Aumeries
Assistance for programming : Marc-Olivier Méhu
Technical & hardware support : Manuel Goepfert

Contact : metmap@orbifly.com




SOURCES & CREDITS :

   NOAA